sensor_id;sensor_type;location;lat;lon;timestamp;P1;durP1;ratioP1;P2;durP2;ratioP2
25615;SDS011;13482;48.234;13.006;2023-03-23T00:01:57;1.67;;;1.00;;
25615;SDS011;13482;48.234;13.006;2023-03-23T00:04:23;1.58;;;0.93;;
25615;SDS011;13482;48.234;13.006;2023-03-23T00:06:51;1.70;;;1.17;;
25615;SDS011;13482;48.234;13.006;2023-03-23T00:09:17;1.58;;;1.00;;
25615;SDS011;13482;48.234;13.006;2023-03-23T00:11:48;2.60;;;0.93;;
25615;SDS011;13482;48.234;13.006;2023-03-23T00:14:16;2.13;;;1.20;;
25615;SDS011;13482;48.234;13.006;2023-03-23T00:16:47;1.25;;;0.80;;
25615;SDS011;13482;48.234;13.006;2023-03-23T00:19:16;1.50;;;1.00;;
25615;SDS011;13482;48.234;13.006;2023-03-23T00:21:44;1.55;;;1.08;;
25615;SDS011;13482;48.234;13.006;2023-03-23T00:24:12;2.90;;;1.15;;
25615;SDS011;13482;48.234;13.006;2023-03-23T00:26:42;1.58;;;1.08;;
25615;SDS011;13482;48.234;13.006;2023-03-23T00:31:46;1.70;;;1.00;;
25615;SDS011;13482;48.234;13.006;2023-03-23T00:34:13;1.83;;;1.10;;
25615;SDS011;13482;48.234;13.006;2023-03-23T00:36:51;2.03;;;1.10;;
25615;SDS011;13482;48.234;13.006;2023-03-23T00:39:22;1.98;;;1.23;;
25615;SDS011;13482;48.234;13.006;2023-03-23T00:41:50;2.53;;;1.17;;
25615;SDS011;13482;48.234;13.006;2023-03-23T00:44:16;2.03;;;1.30;;
25615;SDS011;13482;48.234;13.006;2023-03-23T00:46:43;2.65;;;1.30;;
25615;SDS011;13482;48.234;13.006;2023-03-23T00:49:20;2.63;;;1.40;;
25615;SDS011;13482;48.234;13.006;2023-03-23T00:51:51;1.67;;;1.15;;
25615;SDS011;13482;48.234;13.006;2023-03-23T00:54:19;1.80;;;1.25;;
25615;SDS011;13482;48.234;13.006;2023-03-23T00:56:45;2.13;;;1.17;;
25615;SDS011;13482;48.234;13.006;2023-03-23T00:59:11;2.17;;;1.30;;
25615;SDS011;13482;48.234;13.006;2023-03-23T01:01:38;1.67;;;1.08;;
25615;SDS011;13482;48.234;13.006;2023-03-23T01:04:04;2.28;;;1.25;;
25615;SDS011;13482;48.234;13.006;2023-03-23T01:06:32;2.10;;;1.25;;
25615;SDS011;13482;48.234;13.006;2023-03-23T01:09:03;2.28;;;1.40;;
25615;SDS011;13482;48.234;13.006;2023-03-23T01:11:31;3.15;;;1.23;;
25615;SDS011;13482;48.234;13.006;2023-03-23T01:13:58;2.15;;;1.50;;
25615;SDS011;13482;48.234;13.006;2023-03-23T01:16:25;1.92;;;1.27;;
25615;SDS011;13482;48.234;13.006;2023-03-23T01:18:51;1.80;;;1.13;;
25615;SDS011;13482;48.234;13.006;2023-03-23T01:21:18;1.50;;;1.10;;
25615;SDS011;13482;48.234;13.006;2023-03-23T01:23:45;2.17;;;1.35;;
25615;SDS011;13482;48.234;13.006;2023-03-23T01:26:13;2.28;;;1.38;;
25615;SDS011;13482;48.234;13.006;2023-03-23T01:28:46;1.63;;;0.98;;
25615;SDS011;13482;48.234;13.006;2023-03-23T01:31:14;2.13;;;1.17;;
25615;SDS011;13482;48.234;13.006;2023-03-23T01:33:43;2.75;;;1.38;;
25615;SDS011;13482;48.234;13.006;2023-03-23T01:36:14;1.95;;;1.27;;
25615;SDS011;13482;48.234;13.006;2023-03-23T01:38:46;1.77;;;1.20;;
25615;SDS011;13482;48.234;13.006;2023-03-23T01:41:14;1.80;;;1.20;;
25615;SDS011;13482;48.234;13.006;2023-03-23T01:43:55;2.05;;;1.23;;
25615;SDS011;13482;48.234;13.006;2023-03-23T01:46:30;1.73;;;1.10;;
25615;SDS011;13482;48.234;13.006;2023-03-23T01:49:00;1.80;;;1.20;;
25615;SDS011;13482;48.234;13.006;2023-03-23T01:51:34;3.15;;;1.20;;
25615;SDS011;13482;48.234;13.006;2023-03-23T01:54:39;2.40;;;1.17;;
25615;SDS011;13482;48.234;13.006;2023-03-23T01:57:14;3.00;;;1.40;;
25615;SDS011;13482;48.234;13.006;2023-03-23T01:59:43;2.40;;;1.30;;
25615;SDS011;13482;48.234;13.006;2023-03-23T02:02:14;2.03;;;1.10;;
25615;SDS011;13482;48.234;13.006;2023-03-23T02:04:41;3.38;;;1.50;;
25615;SDS011;13482;48.234;13.006;2023-03-23T02:07:08;2.75;;;1.50;;
25615;SDS011;13482;48.234;13.006;2023-03-23T02:09:35;2.53;;;1.38;;
25615;SDS011;13482;48.234;13.006;2023-03-23T02:12:01;2.22;;;1.45;;
25615;SDS011;13482;48.234;13.006;2023-03-23T02:14:27;3.58;;;1.40;;
25615;SDS011;13482;48.234;13.006;2023-03-23T02:17:15;2.47;;;1.42;;
25615;SDS011;13482;48.234;13.006;2023-03-23T02:20:05;2.25;;;1.15;;
25615;SDS011;13482;48.234;13.006;2023-03-23T02:28:43;2.38;;;1.40;;
25615;SDS011;13482;48.234;13.006;2023-03-23T02:37:03;2.45;;;1.45;;
25615;SDS011;13482;48.234;13.006;2023-03-23T02:42:18;1.83;;;1.30;;
25615;SDS011;13482;48.234;13.006;2023-03-23T02:44:51;2.38;;;1.45;;
25615;SDS011;13482;48.234;13.006;2023-03-23T02:47:21;2.28;;;1.25;;
25615;SDS011;13482;48.234;13.006;2023-03-23T02:49:51;2.40;;;1.50;;
25615;SDS011;13482;48.234;13.006;2023-03-23T02:52:30;2.20;;;1.50;;
25615;SDS011;13482;48.234;13.006;2023-03-23T02:54:58;3.13;;;1.42;;
25615;SDS011;13482;48.234;13.006;2023-03-23T02:57:26;2.33;;;1.63;;
25615;SDS011;13482;48.234;13.006;2023-03-23T02:59:53;2.40;;;1.60;;
25615;SDS011;13482;48.234;13.006;2023-03-23T03:02:23;2.55;;;1.40;;
25615;SDS011;13482;48.234;13.006;2023-03-23T03:05:00;2.45;;;1.60;;
25615;SDS011;13482;48.234;13.006;2023-03-23T03:10:55;2.30;;;1.45;;
25615;SDS011;13482;48.234;13.006;2023-03-23T03:13:46;3.05;;;1.58;;
25615;SDS011;13482;48.234;13.006;2023-03-23T03:16:32;2.78;;;1.75;;
25615;SDS011;13482;48.234;13.006;2023-03-23T03:22:09;2.20;;;1.38;;
25615;SDS011;13482;48.234;13.006;2023-03-23T03:24:36;2.25;;;1.48;;
25615;SDS011;13482;48.234;13.006;2023-03-23T03:27:04;1.98;;;1.30;;
25615;SDS011;13482;48.234;13.006;2023-03-23T03:29:41;1.90;;;1.20;;
25615;SDS011;13482;48.234;13.006;2023-03-23T03:32:18;3.10;;;1.70;;
25615;SDS011;13482;48.234;13.006;2023-03-23T03:34:49;2.53;;;1.30;;
25615;SDS011;13482;48.234;13.006;2023-03-23T03:37:15;2.22;;;1.45;;
25615;SDS011;13482;48.234;13.006;2023-03-23T03:39:44;2.10;;;1.50;;
25615;SDS011;13482;48.234;13.006;2023-03-23T03:42:10;1.77;;;1.10;;
25615;SDS011;13482;48.234;13.006;2023-03-23T03:44:36;2.03;;;1.35;;
25615;SDS011;13482;48.234;13.006;2023-03-23T03:47:02;1.98;;;1.30;;
25615;SDS011;13482;48.234;13.006;2023-03-23T03:49:28;2.25;;;1.63;;
25615;SDS011;13482;48.234;13.006;2023-03-23T03:51:54;2.33;;;1.50;;
25615;SDS011;13482;48.234;13.006;2023-03-23T03:54:21;3.63;;;1.45;;
25615;SDS011;13482;48.234;13.006;2023-03-23T03:56:46;2.95;;;1.45;;
25615;SDS011;13482;48.234;13.006;2023-03-23T03:59:13;1.70;;;1.10;;
25615;SDS011;13482;48.234;13.006;2023-03-23T04:01:39;2.20;;;1.42;;
25615;SDS011;13482;48.234;13.006;2023-03-23T04:04:05;2.35;;;1.42;;
25615;SDS011;13482;48.234;13.006;2023-03-23T04:06:34;2.58;;;1.50;;
25615;SDS011;13482;48.234;13.006;2023-03-23T04:09:01;2.42;;;1.70;;
25615;SDS011;13482;48.234;13.006;2023-03-23T04:11:31;2.10;;;1.45;;
25615;SDS011;13482;48.234;13.006;2023-03-23T04:13:58;3.05;;;1.70;;
25615;SDS011;13482;48.234;13.006;2023-03-23T04:16:24;2.17;;;1.48;;
25615;SDS011;13482;48.234;13.006;2023-03-23T04:18:51;2.38;;;1.60;;
25615;SDS011;13482;48.234;13.006;2023-03-23T04:21:17;2.33;;;1.50;;
25615;SDS011;13482;48.234;13.006;2023-03-23T04:23:43;2.28;;;1.42;;
25615;SDS011;13482;48.234;13.006;2023-03-23T04:26:09;2.35;;;1.50;;
25615;SDS011;13482;48.234;13.006;2023-03-23T04:28:38;2.60;;;1.55;;
25615;SDS011;13482;48.234;13.006;2023-03-23T04:31:06;2.53;;;1.60;;
25615;SDS011;13482;48.234;13.006;2023-03-23T04:33:34;2.10;;;1.50;;
25615;SDS011;13482;48.234;13.006;2023-03-23T04:36:02;2.33;;;1.60;;
25615;SDS011;13482;48.234;13.006;2023-03-23T04:38:31;1.90;;;1.40;;
25615;SDS011;13482;48.234;13.006;2023-03-23T04:40:58;2.60;;;1.25;;
25615;SDS011;13482;48.234;13.006;2023-03-23T04:43:26;2.80;;;1.48;;
25615;SDS011;13482;48.234;13.006;2023-03-23T04:45:53;2.45;;;1.63;;
25615;SDS011;13482;48.234;13.006;2023-03-23T04:48:25;3.67;;;1.83;;
25615;SDS011;13482;48.234;13.006;2023-03-23T04:50:53;2.42;;;1.60;;
25615;SDS011;13482;48.234;13.006;2023-03-23T04:53:19;2.10;;;1.60;;
25615;SDS011;13482;48.234;13.006;2023-03-23T04:55:46;2.60;;;1.50;;
25615;SDS011;13482;48.234;13.006;2023-03-23T04:58:14;2.08;;;1.55;;
25615;SDS011;13482;48.234;13.006;2023-03-23T05:00:42;2.17;;;1.42;;
25615;SDS011;13482;48.234;13.006;2023-03-23T05:03:09;2.50;;;1.58;;
25615;SDS011;13482;48.234;13.006;2023-03-23T05:05:36;2.83;;;1.63;;
25615;SDS011;13482;48.234;13.006;2023-03-23T05:08:02;1.92;;;1.30;;
25615;SDS011;13482;48.234;13.006;2023-03-23T05:10:29;1.92;;;1.40;;
25615;SDS011;13482;48.234;13.006;2023-03-23T05:12:55;2.67;;;1.80;;
25615;SDS011;13482;48.234;13.006;2023-03-23T05:15:21;2.42;;;1.88;;
25615;SDS011;13482;48.234;13.006;2023-03-23T05:17:47;2.50;;;1.83;;
25615;SDS011;13482;48.234;13.006;2023-03-23T05:20:14;2.42;;;1.50;;
25615;SDS011;13482;48.234;13.006;2023-03-23T05:22:44;2.85;;;1.92;;
25615;SDS011;13482;48.234;13.006;2023-03-23T05:25:15;2.75;;;1.60;;
25615;SDS011;13482;48.234;13.006;2023-03-23T05:27:45;2.63;;;1.83;;
25615;SDS011;13482;48.234;13.006;2023-03-23T05:30:17;2.88;;;1.80;;
25615;SDS011;13482;48.234;13.006;2023-03-23T05:32:45;2.72;;;1.77;;
25615;SDS011;13482;48.234;13.006;2023-03-23T05:35:15;2.85;;;1.70;;
25615;SDS011;13482;48.234;13.006;2023-03-23T05:37:43;3.05;;;2.13;;
25615;SDS011;13482;48.234;13.006;2023-03-23T05:40:12;2.42;;;1.73;;
25615;SDS011;13482;48.234;13.006;2023-03-23T05:42:39;2.80;;;2.20;;
25615;SDS011;13482;48.234;13.006;2023-03-23T05:45:07;2.95;;;2.00;;
25615;SDS011;13482;48.234;13.006;2023-03-23T05:47:36;2.85;;;2.03;;
25615;SDS011;13482;48.234;13.006;2023-03-23T05:50:04;3.10;;;2.28;;
25615;SDS011;13482;48.234;13.006;2023-03-23T05:52:32;2.95;;;1.83;;
25615;SDS011;13482;48.234;13.006;2023-03-23T05:55:00;2.95;;;1.98;;
25615;SDS011;13482;48.234;13.006;2023-03-23T05:57:28;2.70;;;1.90;;
25615;SDS011;13482;48.234;13.006;2023-03-23T05:59:55;3.25;;;1.90;;
25615;SDS011;13482;48.234;13.006;2023-03-23T06:02:23;3.97;;;2.05;;
25615;SDS011;13482;48.234;13.006;2023-03-23T06:04:50;2.50;;;1.63;;
25615;SDS011;13482;48.234;13.006;2023-03-23T06:07:22;1.95;;;1.35;;
25615;SDS011;13482;48.234;13.006;2023-03-23T06:09:50;2.08;;;1.50;;
25615;SDS011;13482;48.234;13.006;2023-03-23T06:12:16;2.75;;;1.85;;
25615;SDS011;13482;48.234;13.006;2023-03-23T06:14:46;2.72;;;1.90;;
25615;SDS011;13482;48.234;13.006;2023-03-23T06:17:16;4.50;;;2.33;;
25615;SDS011;13482;48.234;13.006;2023-03-23T06:19:42;4.43;;;2.58;;
25615;SDS011;13482;48.234;13.006;2023-03-23T06:22:12;3.90;;;2.70;;
25615;SDS011;13482;48.234;13.006;2023-03-23T06:24:38;2.58;;;1.90;;
25615;SDS011;13482;48.234;13.006;2023-03-23T06:27:04;2.45;;;2.08;;
25615;SDS011;13482;48.234;13.006;2023-03-23T06:29:30;3.47;;;1.90;;
25615;SDS011;13482;48.234;13.006;2023-03-23T06:31:58;2.83;;;1.88;;
25615;SDS011;13482;48.234;13.006;2023-03-23T06:34:27;2.60;;;1.98;;
25615;SDS011;13482;48.234;13.006;2023-03-23T06:36:55;3.22;;;2.05;;
25615;SDS011;13482;48.234;13.006;2023-03-23T06:39:22;2.88;;;1.85;;
25615;SDS011;13482;48.234;13.006;2023-03-23T06:41:48;2.70;;;1.80;;
25615;SDS011;13482;48.234;13.006;2023-03-23T06:44:15;2.35;;;1.60;;
25615;SDS011;13482;48.234;13.006;2023-03-23T06:46:41;2.65;;;1.65;;
25615;SDS011;13482;48.234;13.006;2023-03-23T06:49:07;3.33;;;2.00;;
25615;SDS011;13482;48.234;13.006;2023-03-23T06:51:35;2.70;;;1.80;;
25615;SDS011;13482;48.234;13.006;2023-03-23T06:54:03;3.03;;;1.70;;
25615;SDS011;13482;48.234;13.006;2023-03-23T06:56:30;2.17;;;1.63;;
25615;SDS011;13482;48.234;13.006;2023-03-23T06:58:56;2.13;;;1.60;;
25615;SDS011;13482;48.234;13.006;2023-03-23T07:01:22;2.78;;;1.90;;
25615;SDS011;13482;48.234;13.006;2023-03-23T07:03:48;2.40;;;1.80;;
25615;SDS011;13482;48.234;13.006;2023-03-23T07:06:15;3.30;;;1.90;;
25615;SDS011;13482;48.234;13.006;2023-03-23T07:08:41;3.30;;;1.95;;
25615;SDS011;13482;48.234;13.006;2023-03-23T07:11:07;2.65;;;1.83;;
25615;SDS011;13482;48.234;13.006;2023-03-23T07:13:35;4.65;;;1.90;;
25615;SDS011;13482;48.234;13.006;2023-03-23T07:16:04;2.45;;;1.70;;
25615;SDS011;13482;48.234;13.006;2023-03-23T07:18:31;3.78;;;2.30;;
25615;SDS011;13482;48.234;13.006;2023-03-23T07:20:57;3.45;;;2.13;;
25615;SDS011;13482;48.234;13.006;2023-03-23T07:23:23;3.78;;;2.08;;
25615;SDS011;13482;48.234;13.006;2023-03-23T07:25:49;3.05;;;1.70;;
25615;SDS011;13482;48.234;13.006;2023-03-23T07:28:15;2.38;;;1.65;;
25615;SDS011;13482;48.234;13.006;2023-03-23T07:30:42;2.25;;;1.55;;
25615;SDS011;13482;48.234;13.006;2023-03-23T07:33:08;2.75;;;1.40;;
25615;SDS011;13482;48.234;13.006;2023-03-23T07:35:35;2.65;;;1.40;;
25615;SDS011;13482;48.234;13.006;2023-03-23T07:38:02;2.15;;;1.40;;
25615;SDS011;13482;48.234;13.006;2023-03-23T07:40:30;2.42;;;1.08;;
25615;SDS011;13482;48.234;13.006;2023-03-23T07:42:58;2.47;;;1.33;;
25615;SDS011;13482;48.234;13.006;2023-03-23T07:45:26;1.65;;;1.23;;
25615;SDS011;13482;48.234;13.006;2023-03-23T07:47:52;2.08;;;1.35;;
25615;SDS011;13482;48.234;13.006;2023-03-23T07:50:18;1.73;;;1.33;;
25615;SDS011;13482;48.234;13.006;2023-03-23T07:52:49;2.05;;;1.40;;
25615;SDS011;13482;48.234;13.006;2023-03-23T07:55:17;3.63;;;1.27;;
25615;SDS011;13482;48.234;13.006;2023-03-23T07:57:44;1.60;;;1.23;;
25615;SDS011;13482;48.234;13.006;2023-03-23T08:00:15;2.55;;;1.58;;
25615;SDS011;13482;48.234;13.006;2023-03-23T08:02:53;2.55;;;1.52;;
25615;SDS011;13482;48.234;13.006;2023-03-23T08:05:22;2.53;;;1.23;;
25615;SDS011;13482;48.234;13.006;2023-03-23T08:07:51;2.30;;;1.60;;
25615;SDS011;13482;48.234;13.006;2023-03-23T08:10:19;2.38;;;1.48;;
25615;SDS011;13482;48.234;13.006;2023-03-23T08:12:50;2.47;;;1.48;;
25615;SDS011;13482;48.234;13.006;2023-03-23T08:15:18;1.92;;;1.30;;
25615;SDS011;13482;48.234;13.006;2023-03-23T08:17:46;4.18;;;1.52;;
25615;SDS011;13482;48.234;13.006;2023-03-23T08:20:14;2.35;;;1.63;;
25615;SDS011;13482;48.234;13.006;2023-03-23T08:22:42;4.15;;;1.60;;
25615;SDS011;13482;48.234;13.006;2023-03-23T08:25:21;3.50;;;1.63;;
25615;SDS011;13482;48.234;13.006;2023-03-23T08:27:49;3.55;;;1.70;;
25615;SDS011;13482;48.234;13.006;2023-03-23T08:30:16;3.80;;;1.77;;
25615;SDS011;13482;48.234;13.006;2023-03-23T08:32:45;2.38;;;1.58;;
25615;SDS011;13482;48.234;13.006;2023-03-23T08:35:12;2.33;;;1.42;;
25615;SDS011;13482;48.234;13.006;2023-03-23T08:37:40;2.72;;;1.80;;
25615;SDS011;13482;48.234;13.006;2023-03-23T08:40:08;3.22;;;1.80;;
25615;SDS011;13482;48.234;13.006;2023-03-23T08:42:46;4.82;;;1.80;;
25615;SDS011;13482;48.234;13.006;2023-03-23T08:45:14;2.75;;;1.70;;
25615;SDS011;13482;48.234;13.006;2023-03-23T08:47:46;2.97;;;1.60;;
25615;SDS011;13482;48.234;13.006;2023-03-23T08:50:18;2.10;;;1.60;;
25615;SDS011;13482;48.234;13.006;2023-03-23T08:52:48;3.70;;;1.53;;
25615;SDS011;13482;48.234;13.006;2023-03-23T08:55:15;3.65;;;1.77;;
25615;SDS011;13482;48.234;13.006;2023-03-23T08:57:43;2.67;;;1.67;;
25615;SDS011;13482;48.234;13.006;2023-03-23T09:00:11;2.90;;;1.77;;
25615;SDS011;13482;48.234;13.006;2023-03-23T09:02:45;2.17;;;1.48;;
25615;SDS011;13482;48.234;13.006;2023-03-23T09:05:14;2.67;;;1.60;;
25615;SDS011;13482;48.234;13.006;2023-03-23T09:07:43;2.00;;;1.33;;
25615;SDS011;13482;48.234;13.006;2023-03-23T09:10:13;2.63;;;1.60;;
25615;SDS011;13482;48.234;13.006;2023-03-23T09:12:40;2.63;;;1.50;;
25615;SDS011;13482;48.234;13.006;2023-03-23T09:15:08;3.95;;;1.30;;
25615;SDS011;13482;48.234;13.006;2023-03-23T09:17:39;2.83;;;1.50;;
25615;SDS011;13482;48.234;13.006;2023-03-23T09:20:10;2.63;;;1.33;;
25615;SDS011;13482;48.234;13.006;2023-03-23T09:22:42;2.20;;;1.35;;
25615;SDS011;13482;48.234;13.006;2023-03-23T09:27:39;2.15;;;1.13;;
25615;SDS011;13482;48.234;13.006;2023-03-23T09:30:08;3.50;;;1.17;;
25615;SDS011;13482;48.234;13.006;2023-03-23T09:32:37;2.00;;;1.20;;
25615;SDS011;13482;48.234;13.006;2023-03-23T09:35:06;2.47;;;1.10;;
25615;SDS011;13482;48.234;13.006;2023-03-23T09:37:34;2.55;;;1.55;;
25615;SDS011;13482;48.234;13.006;2023-03-23T09:40:04;2.70;;;1.50;;
25615;SDS011;13482;48.234;13.006;2023-03-23T09:42:44;1.92;;;1.25;;
25615;SDS011;13482;48.234;13.006;2023-03-23T09:45:25;2.25;;;1.05;;
25615;SDS011;13482;48.234;13.006;2023-03-23T09:50:40;1.40;;;1.10;;
25615;SDS011;13482;48.234;13.006;2023-03-23T09:53:13;1.60;;;1.00;;
25615;SDS011;13482;48.234;13.006;2023-03-23T09:56:00;1.83;;;0.98;;
25615;SDS011;13482;48.234;13.006;2023-03-23T09:58:32;1.50;;;0.90;;
25615;SDS011;13482;48.234;13.006;2023-03-23T10:01:30;1.63;;;1.00;;
25615;SDS011;13482;48.234;13.006;2023-03-23T10:04:07;2.05;;;1.23;;
25615;SDS011;13482;48.234;13.006;2023-03-23T10:06:41;1.48;;;0.90;;
25615;SDS011;13482;48.234;13.006;2023-03-23T10:09:10;2.10;;;1.35;;
25615;SDS011;13482;48.234;13.006;2023-03-23T10:12:17;1.85;;;1.17;;
25615;SDS011;13482;48.234;13.006;2023-03-23T10:15:02;1.60;;;1.10;;
25615;SDS011;13482;48.234;13.006;2023-03-23T10:28:47;2.25;;;1.27;;
25615;SDS011;13482;48.234;13.006;2023-03-23T10:31:23;1.95;;;1.15;;
25615;SDS011;13482;48.234;13.006;2023-03-23T10:33:56;1.80;;;1.10;;
25615;SDS011;13482;48.234;13.006;2023-03-23T10:36:29;1.70;;;1.10;;
25615;SDS011;13482;48.234;13.006;2023-03-23T10:39:16;1.77;;;1.00;;
25615;SDS011;13482;48.234;13.006;2023-03-23T10:41:46;2.30;;;1.10;;
25615;SDS011;13482;48.234;13.006;2023-03-23T10:44:17;1.80;;;1.27;;
25615;SDS011;13482;48.234;13.006;2023-03-23T10:49:33;2.05;;;1.20;;
25615;SDS011;13482;48.234;13.006;2023-03-23T10:52:40;1.73;;;1.17;;
25615;SDS011;13482;48.234;13.006;2023-03-23T10:55:04;1.73;;;1.00;;
25615;SDS011;13482;48.234;13.006;2023-03-23T10:57:58;1.77;;;1.10;;
25615;SDS011;13482;48.234;13.006;2023-03-23T11:00:29;1.23;;;0.70;;
25615;SDS011;13482;48.234;13.006;2023-03-23T11:03:04;1.67;;;0.90;;
25615;SDS011;13482;48.234;13.006;2023-03-23T11:05:53;1.70;;;0.90;;
25615;SDS011;13482;48.234;13.006;2023-03-23T11:08:34;2.38;;;1.05;;
25615;SDS011;13482;48.234;13.006;2023-03-23T11:13:50;1.30;;;0.80;;
25615;SDS011;13482;48.234;13.006;2023-03-23T11:16:54;2.00;;;0.80;;
25615;SDS011;13482;48.234;13.006;2023-03-23T11:19:27;1.85;;;0.70;;
25615;SDS011;13482;48.234;13.006;2023-03-23T11:22:06;1.40;;;0.80;;
25615;SDS011;13482;48.234;13.006;2023-03-23T11:24:43;1.60;;;0.80;;
25615;SDS011;13482;48.234;13.006;2023-03-23T11:27:13;1.50;;;0.70;;
25615;SDS011;13482;48.234;13.006;2023-03-23T11:29:49;1.13;;;0.70;;
25615;SDS011;13482;48.234;13.006;2023-03-23T11:32:28;2.15;;;0.90;;
25615;SDS011;13482;48.234;13.006;2023-03-23T11:35:02;1.00;;;0.60;;
25615;SDS011;13482;48.234;13.006;2023-03-23T11:37:35;1.27;;;0.60;;
25615;SDS011;13482;48.234;13.006;2023-03-23T11:42:37;1.92;;;0.68;;
25615;SDS011;13482;48.234;13.006;2023-03-23T11:48:20;1.58;;;0.80;;
25615;SDS011;13482;48.234;13.006;2023-03-23T11:51:16;1.50;;;0.70;;
25615;SDS011;13482;48.234;13.006;2023-03-23T11:56:32;1.20;;;0.68;;
25615;SDS011;13482;48.234;13.006;2023-03-23T11:59:09;1.20;;;0.60;;
25615;SDS011;13482;48.234;13.006;2023-03-23T12:08:15;1.40;;;0.65;;
25615;SDS011;13482;48.234;13.006;2023-03-23T12:13:34;4.13;;;0.77;;
25615;SDS011;13482;48.234;13.006;2023-03-23T12:28:48;1.90;;;0.93;;
25615;SDS011;13482;48.234;13.006;2023-03-23T12:37:29;2.38;;;1.00;;
25615;SDS011;13482;48.234;13.006;2023-03-23T12:42:57;1.50;;;1.00;;
25615;SDS011;13482;48.234;13.006;2023-03-23T12:45:59;1.42;;;0.80;;
25615;SDS011;13482;48.234;13.006;2023-03-23T12:49:01;2.58;;;1.10;;
25615;SDS011;13482;48.234;13.006;2023-03-23T12:51:54;2.20;;;1.15;;
25615;SDS011;13482;48.234;13.006;2023-03-23T12:58:23;1.52;;;0.93;;
25615;SDS011;13482;48.234;13.006;2023-03-23T13:00:56;1.67;;;0.90;;
25615;SDS011;13482;48.234;13.006;2023-03-23T13:06:32;2.17;;;0.90;;
25615;SDS011;13482;48.234;13.006;2023-03-23T13:09:07;2.67;;;1.00;;
25615;SDS011;13482;48.234;13.006;2023-03-23T13:11:48;2.03;;;0.82;;
25615;SDS011;13482;48.234;13.006;2023-03-23T13:14:25;2.17;;;1.05;;
25615;SDS011;13482;48.234;13.006;2023-03-23T13:22:58;1.48;;;0.90;;
25615;SDS011;13482;48.234;13.006;2023-03-23T13:28:16;1.40;;;0.80;;
25615;SDS011;13482;48.234;13.006;2023-03-23T13:30:55;1.45;;;0.80;;
25615;SDS011;13482;48.234;13.006;2023-03-23T13:33:36;0.82;;;0.60;;
25615;SDS011;13482;48.234;13.006;2023-03-23T13:36:12;1.05;;;0.63;;
25615;SDS011;13482;48.234;13.006;2023-03-23T13:38:47;1.33;;;0.70;;
25615;SDS011;13482;48.234;13.006;2023-03-23T13:41:16;1.20;;;0.80;;
25615;SDS011;13482;48.234;13.006;2023-03-23T13:43:45;1.48;;;0.60;;
25615;SDS011;13482;48.234;13.006;2023-03-23T13:46:13;1.20;;;0.68;;
25615;SDS011;13482;48.234;13.006;2023-03-23T13:56:57;1.13;;;0.60;;
25615;SDS011;13482;48.234;13.006;2023-03-23T13:59:35;1.27;;;0.70;;
25615;SDS011;13482;48.234;13.006;2023-03-23T14:07:51;1.90;;;0.77;;
25615;SDS011;13482;48.234;13.006;2023-03-23T14:10:59;1.27;;;0.75;;
25615;SDS011;13482;48.234;13.006;2023-03-23T14:16:35;1.30;;;0.80;;
25615;SDS011;13482;48.234;13.006;2023-03-23T14:19:17;1.20;;;0.70;;
25615;SDS011;13482;48.234;13.006;2023-03-23T14:21:55;1.00;;;0.70;;
25615;SDS011;13482;48.234;13.006;2023-03-23T14:24:31;3.35;;;0.93;;
25615;SDS011;13482;48.234;13.006;2023-03-23T14:29:33;0.93;;;0.52;;
25615;SDS011;13482;48.234;13.006;2023-03-23T14:31:59;1.20;;;0.75;;
25615;SDS011;13482;48.234;13.006;2023-03-23T14:34:28;1.42;;;0.70;;
25615;SDS011;13482;48.234;13.006;2023-03-23T14:36:56;1.30;;;0.70;;
25615;SDS011;13482;48.234;13.006;2023-03-23T14:39:24;1.08;;;0.70;;
25615;SDS011;13482;48.234;13.006;2023-03-23T14:41:55;1.70;;;0.90;;
25615;SDS011;13482;48.234;13.006;2023-03-23T14:44:30;2.08;;;1.00;;
25615;SDS011;13482;48.234;13.006;2023-03-23T14:47:00;1.98;;;1.10;;
25615;SDS011;13482;48.234;13.006;2023-03-23T14:49:33;2.90;;;1.10;;
25615;SDS011;13482;48.234;13.006;2023-03-23T14:52:09;2.22;;;1.13;;
25615;SDS011;13482;48.234;13.006;2023-03-23T14:54:40;2.15;;;1.25;;
25615;SDS011;13482;48.234;13.006;2023-03-23T14:57:12;1.50;;;1.10;;
25615;SDS011;13482;48.234;13.006;2023-03-23T14:59:42;1.77;;;1.00;;
25615;SDS011;13482;48.234;13.006;2023-03-23T15:02:11;1.42;;;1.00;;
25615;SDS011;13482;48.234;13.006;2023-03-23T15:04:47;1.73;;;1.10;;
25615;SDS011;13482;48.234;13.006;2023-03-23T15:07:17;2.15;;;1.20;;
25615;SDS011;13482;48.234;13.006;2023-03-23T15:09:45;2.13;;;1.23;;
25615;SDS011;13482;48.234;13.006;2023-03-23T15:12:22;2.08;;;1.30;;
25615;SDS011;13482;48.234;13.006;2023-03-23T15:15:03;2.40;;;1.35;;
25615;SDS011;13482;48.234;13.006;2023-03-23T15:17:34;2.90;;;1.40;;
25615;SDS011;13482;48.234;13.006;2023-03-23T15:20:09;2.60;;;1.38;;
25615;SDS011;13482;48.234;13.006;2023-03-23T15:22:51;2.55;;;1.63;;
25615;SDS011;13482;48.234;13.006;2023-03-23T15:25:19;3.20;;;1.75;;
25615;SDS011;13482;48.234;13.006;2023-03-23T15:30:32;2.40;;;1.60;;
25615;SDS011;13482;48.234;13.006;2023-03-23T15:35:36;3.40;;;1.50;;
25615;SDS011;13482;48.234;13.006;2023-03-23T15:38:15;3.83;;;1.70;;
25615;SDS011;13482;48.234;13.006;2023-03-23T15:40:52;2.20;;;1.48;;
25615;SDS011;13482;48.234;13.006;2023-03-23T15:46:22;2.30;;;1.30;;
25615;SDS011;13482;48.234;13.006;2023-03-23T15:48:51;3.38;;;1.40;;
25615;SDS011;13482;48.234;13.006;2023-03-23T15:51:24;2.40;;;1.30;;
25615;SDS011;13482;48.234;13.006;2023-03-23T15:53:54;3.13;;;1.30;;
25615;SDS011;13482;48.234;13.006;2023-03-23T15:56:22;2.45;;;1.30;;
25615;SDS011;13482;48.234;13.006;2023-03-23T15:58:49;2.58;;;1.40;;
25615;SDS011;13482;48.234;13.006;2023-03-23T16:01:25;1.80;;;1.13;;
25615;SDS011;13482;48.234;13.006;2023-03-23T16:06:26;1.60;;;0.97;;
25615;SDS011;13482;48.234;13.006;2023-03-23T16:08:56;2.58;;;1.42;;
25615;SDS011;13482;48.234;13.006;2023-03-23T16:11:25;2.03;;;1.20;;
25615;SDS011;13482;48.234;13.006;2023-03-23T16:13:54;2.88;;;1.45;;
25615;SDS011;13482;48.234;13.006;2023-03-23T16:16:22;3.60;;;1.38;;
25615;SDS011;13482;48.234;13.006;2023-03-23T16:18:54;1.90;;;1.10;;
25615;SDS011;13482;48.234;13.006;2023-03-23T16:21:22;2.63;;;1.60;;
25615;SDS011;13482;48.234;13.006;2023-03-23T16:23:49;3.92;;;2.00;;
25615;SDS011;13482;48.234;13.006;2023-03-23T16:26:17;5.03;;;2.67;;
25615;SDS011;13482;48.234;13.006;2023-03-23T16:28:44;3.60;;;2.40;;
25615;SDS011;13482;48.234;13.006;2023-03-23T16:31:11;5.22;;;3.85;;
25615;SDS011;13482;48.234;13.006;2023-03-23T16:33:39;5.78;;;3.90;;
25615;SDS011;13482;48.234;13.006;2023-03-23T16:36:07;4.68;;;3.50;;
25615;SDS011;13482;48.234;13.006;2023-03-23T16:38:38;3.60;;;2.50;;
25615;SDS011;13482;48.234;13.006;2023-03-23T16:41:15;3.85;;;2.88;;
25615;SDS011;13482;48.234;13.006;2023-03-23T16:43:42;3.05;;;2.20;;
25615;SDS011;13482;48.234;13.006;2023-03-23T16:46:10;2.53;;;1.88;;
25615;SDS011;13482;48.234;13.006;2023-03-23T16:48:39;2.67;;;1.55;;
25615;SDS011;13482;48.234;13.006;2023-03-23T16:51:07;2.80;;;1.95;;
25615;SDS011;13482;48.234;13.006;2023-03-23T16:53:35;3.63;;;2.17;;
25615;SDS011;13482;48.234;13.006;2023-03-23T16:56:03;4.78;;;2.20;;
25615;SDS011;13482;48.234;13.006;2023-03-23T16:58:30;4.70;;;1.85;;
25615;SDS011;13482;48.234;13.006;2023-03-23T17:00:59;3.67;;;1.60;;
25615;SDS011;13482;48.234;13.006;2023-03-23T17:03:27;2.13;;;1.45;;
25615;SDS011;13482;48.234;13.006;2023-03-23T17:05:55;4.40;;;2.63;;
25615;SDS011;13482;48.234;13.006;2023-03-23T17:08:22;5.05;;;3.33;;